createdAt,value
2018-06-04T00:01:47.880Z,24.88
2018-06-04T00:04:16.290Z,24.87
2018-06-04T00:06:44.225Z,24.86
2018-06-04T00:09:12.194Z,24.85
2018-06-04T00:11:40.261Z,24.85
2018-06-04T00:14:08.166Z,24.84
2018-06-04T00:16:36.376Z,24.84
2018-06-04T00:19:04.548Z,24.82
2018-06-04T00:21:32.672Z,24.83
2018-06-04T00:24:00.304Z,24.81
2018-06-04T00:26:28.327Z,24.80
2018-06-04T00:28:55.955Z,24.80
2018-06-04T00:31:23.590Z,24.78
2018-06-04T00:33:51.302Z,24.78
2018-06-04T00:36:19.171Z,24.77
2018-06-04T00:38:47.133Z,24.76
2018-06-04T00:41:15.025Z,24.76
2018-06-04T00:43:42.648Z,24.76
2018-06-04T00:46:10.637Z,24.75
2018-06-04T00:48:38.539Z,24.74
2018-06-04T00:51:06.814Z,24.73
2018-06-04T00:53:34.863Z,24.74
2018-06-04T00:56:13.881Z,24.72
2018-06-04T00:58:41.813Z,24.71
2018-06-04T01:01:09.707Z,24.71
2018-06-04T01:03:37.705Z,24.71
2018-06-04T01:06:05.469Z,24.71
2018-06-04T01:08:33.409Z,24.69
2018-06-04T01:11:01.490Z,24.69
2018-06-04T01:13:29.460Z,24.68
2018-06-04T01:15:57.474Z,24.68
2018-06-04T01:18:25.151Z,24.67
2018-06-04T01:20:53.053Z,24.67
2018-06-04T01:23:21.028Z,24.67
2018-06-04T01:25:48.755Z,24.66
2018-06-04T01:28:16.927Z,24.66
2018-06-04T01:30:44.793Z,24.65
2018-06-04T01:33:12.463Z,24.65
2018-06-04T01:35:40.427Z,24.64
2018-06-04T01:38:08.344Z,24.64
2018-06-04T01:40:36.266Z,24.64
2018-06-04T01:43:03.905Z,24.62
2018-06-04T01:45:31.831Z,24.63
2018-06-04T01:47:59.468Z,24.61
2018-06-04T01:50:27.230Z,24.60
2018-06-04T01:52:55.177Z,24.61
2018-06-04T01:55:23.879Z,24.60
2018-06-04T01:57:51.494Z,24.59
2018-06-04T02:00:19.805Z,24.58
2018-06-04T02:02:47.837Z,24.58
2018-06-04T02:05:15.844Z,24.58
2018-06-04T02:07:43.714Z,24.57
2018-06-04T02:10:11.402Z,24.56
2018-06-04T02:12:39.037Z,24.56
2018-06-04T02:15:06.658Z,24.55
2018-06-04T02:17:34.690Z,24.56
2018-06-04T02:20:02.325Z,24.55
2018-06-04T02:22:29.949Z,24.54
2018-06-04T02:24:57.892Z,24.54
2018-06-04T02:27:25.502Z,24.54
2018-06-04T02:29:53.261Z,24.52
2018-06-04T02:32:21.110Z,24.52
2018-06-04T02:34:48.735Z,24.51
2018-06-04T02:37:16.685Z,24.51
2018-06-04T02:39:44.850Z,24.49
2018-06-04T02:42:13.127Z,24.49
2018-06-04T02:44:41.209Z,24.48
2018-06-04T02:47:09.413Z,24.49
2018-06-04T02:49:37.013Z,24.47
2018-06-04T02:52:05.169Z,24.47
2018-06-04T02:54:33.380Z,24.47
2018-06-04T02:57:01.069Z,24.46
2018-06-04T02:59:28.668Z,24.46
2018-06-04T03:01:56.639Z,24.45
2018-06-04T03:04:24.622Z,24.44
2018-06-04T03:06:52.813Z,24.44
2018-06-04T03:09:21.016Z,24.44
2018-06-04T03:11:48.629Z,24.44
2018-06-04T03:14:16.358Z,24.43
2018-06-04T03:16:46.607Z,24.43
2018-06-04T03:19:15.858Z,24.41
2018-06-04T03:21:43.907Z,24.42
2018-06-04T03:24:11.706Z,24.41
2018-06-04T03:26:39.338Z,24.40
2018-06-04T03:29:06.949Z,24.40
2018-06-04T03:31:34.977Z,24.39
2018-06-04T03:34:02.604Z,24.40
2018-06-04T03:36:30.510Z,24.40
2018-06-04T03:38:58.561Z,24.39
2018-06-04T03:41:26.532Z,24.39
2018-06-04T03:43:54.457Z,24.38
2018-06-04T03:46:22.174Z,24.38
2018-06-04T03:48:50.130Z,24.36
2018-06-04T03:51:18.030Z,24.36
2018-06-04T03:53:46.311Z,24.36
2018-06-04T03:56:14.445Z,24.36
2018-06-04T03:58:42.570Z,24.35
2018-06-04T04:01:10.525Z,24.35
2018-06-04T04:03:38.447Z,24.34
2018-06-04T04:06:06.382Z,24.34
2018-06-04T04:08:34.292Z,24.32
2018-06-04T04:11:02.325Z,24.32
2018-06-04T04:13:30.538Z,24.33
2018-06-04T04:15:58.176Z,24.31
2018-06-04T04:18:26.485Z,24.31
2018-06-04T04:20:54.645Z,24.31
2018-06-04T04:23:22.543Z,24.30
2018-06-04T04:25:50.565Z,24.29
2018-06-04T04:28:18.201Z,24.29
2018-06-04T04:30:45.809Z,24.27
2018-06-04T04:33:13.450Z,24.29
2018-06-04T04:35:41.058Z,24.27
2018-06-04T04:38:09.229Z,24.27
2018-06-04T04:40:37.076Z,24.27
2018-06-04T04:43:04.784Z,24.27
2018-06-04T04:45:32.729Z,24.26
2018-06-04T04:48:00.610Z,24.26
2018-06-04T04:50:28.262Z,24.26
2018-06-04T04:52:55.921Z,24.25
2018-06-04T04:55:23.584Z,24.25
2018-06-04T04:57:51.799Z,24.25
2018-06-04T05:00:20.712Z,24.24
2018-06-04T05:02:48.587Z,24.24
2018-06-04T05:05:16.597Z,24.24
2018-06-04T05:07:44.376Z,24.24
2018-06-04T05:10:13.494Z,24.24
2018-06-04T05:12:42.074Z,24.22
2018-06-04T05:15:09.754Z,24.23
2018-06-04T05:17:37.427Z,24.23
2018-06-04T05:20:05.046Z,24.22
2018-06-04T05:22:33.048Z,24.22
2018-06-04T05:25:00.700Z,24.21
2018-06-04T05:27:28.540Z,24.22
2018-06-04T05:29:56.978Z,24.22
2018-06-04T05:32:25.255Z,24.22
2018-06-04T05:34:52.891Z,24.22
2018-06-04T05:37:20.682Z,24.21
2018-06-04T05:39:48.906Z,24.21
2018-06-04T05:42:16.859Z,24.21
2018-06-04T05:44:44.835Z,24.22
2018-06-04T05:47:13.051Z,24.21
2018-06-04T05:49:41.282Z,24.20
2018-06-04T05:52:09.409Z,24.21
2018-06-04T05:54:37.236Z,24.20
2018-06-04T05:57:04.896Z,24.20
2018-06-04T05:59:32.605Z,24.20
2018-06-04T06:02:00.779Z,24.21
2018-06-04T06:04:28.386Z,24.21
2018-06-04T06:06:57.315Z,24.21
2018-06-04T06:09:25.360Z,24.21
2018-06-04T06:11:52.971Z,24.21
2018-06-04T06:14:20.693Z,24.22
2018-06-04T06:16:48.988Z,24.21
2018-06-04T06:19:16.952Z,24.20
2018-06-04T06:21:44.724Z,24.20
2018-06-04T06:24:13.195Z,24.20
2018-06-04T06:26:41.155Z,24.20
2018-06-04T06:29:08.781Z,24.20
2018-06-04T06:31:37.417Z,24.21
2018-06-04T06:34:05.238Z,24.20
2018-06-04T06:36:33.325Z,24.21
2018-06-04T06:39:00.930Z,24.22
2018-06-04T06:41:28.826Z,24.22
2018-06-04T06:43:57.578Z,24.21
2018-06-04T06:46:25.188Z,24.23
2018-06-04T06:48:53.091Z,24.22
2018-06-04T06:51:21.065Z,24.23
2018-06-04T06:53:48.723Z,24.23
2018-06-04T06:56:16.377Z,24.24
2018-06-04T06:58:44.272Z,24.24
2018-06-04T07:01:11.895Z,24.24
2018-06-04T07:03:39.792Z,24.25
2018-06-04T07:06:07.641Z,24.26
2018-06-04T07:08:35.266Z,24.27
2018-06-04T07:11:03.043Z,24.28
2018-06-04T07:13:31.241Z,24.28
2018-06-04T07:15:58.872Z,24.27
2018-06-04T07:18:26.513Z,24.29
2018-06-04T07:20:54.744Z,24.28
2018-06-04T07:23:22.913Z,24.27
2018-06-04T07:25:50.803Z,24.28
2018-06-04T07:28:18.523Z,24.29
2018-06-04T07:30:46.422Z,24.28
2018-06-04T07:33:14.048Z,24.28
2018-06-04T07:35:41.718Z,24.27
2018-06-04T07:38:09.607Z,24.28
2018-06-04T07:40:37.245Z,24.28
2018-06-04T07:43:05.746Z,24.30
2018-06-04T07:45:33.645Z,24.30
2018-06-04T07:48:01.405Z,24.31
2018-06-04T07:50:28.997Z,24.30
2018-06-04T07:52:56.870Z,24.31
2018-06-04T07:55:24.799Z,24.31
2018-06-04T07:57:52.380Z,24.31
2018-06-04T08:00:19.983Z,24.33
2018-06-04T08:02:47.652Z,24.32
2018-06-04T08:05:15.569Z,24.32
2018-06-04T08:07:43.485Z,24.33
2018-06-04T08:10:11.167Z,24.33
2018-06-04T08:12:39.012Z,24.34
2018-06-04T08:15:06.612Z,24.35
2018-06-04T08:17:34.680Z,24.36
2018-06-04T08:20:02.657Z,24.39
2018-06-04T08:22:31.154Z,24.39
2018-06-04T08:24:59.089Z,24.39
2018-06-04T08:27:27.217Z,24.39
2018-06-04T08:29:54.841Z,24.40
2018-06-04T08:32:22.790Z,24.41
2018-06-04T08:34:50.755Z,24.40
2018-06-04T08:37:19.173Z,24.40
2018-06-04T08:39:46.772Z,24.41
2018-06-04T08:42:15.260Z,24.39
2018-06-04T08:44:43.160Z,24.39
2018-06-04T08:47:10.790Z,24.39
2018-06-04T08:49:38.890Z,24.40
2018-06-04T08:52:06.494Z,24.42
2018-06-04T08:54:34.347Z,24.40
2018-06-04T08:57:01.989Z,24.41
2018-06-04T08:59:29.790Z,24.42
2018-06-04T09:01:57.535Z,24.41
2018-06-04T09:04:25.442Z,24.41
2018-06-04T09:06:53.722Z,24.42
2018-06-04T09:09:21.712Z,24.42
2018-06-04T09:11:49.317Z,24.42
2018-06-04T09:14:17.444Z,24.42
2018-06-04T09:16:45.104Z,24.43
2018-06-04T09:19:12.981Z,24.44
2018-06-04T09:21:40.689Z,24.46
2018-06-04T09:24:08.816Z,24.50
2018-06-04T09:26:36.418Z,24.51
2018-06-04T09:29:04.047Z,24.52
2018-06-04T09:31:31.689Z,24.52
2018-06-04T09:33:59.780Z,24.52
2018-06-04T09:36:27.777Z,24.53
2018-06-04T09:38:55.804Z,24.52
2018-06-04T09:41:23.977Z,24.52
2018-06-04T09:43:52.082Z,24.53
2018-06-04T09:46:20.083Z,24.53
2018-06-04T09:48:48.687Z,24.54
2018-06-04T09:51:16.586Z,24.56
2018-06-04T09:53:44.215Z,24.59
2018-06-04T09:56:12.575Z,24.63
2018-06-04T09:58:40.890Z,24.70
2018-06-04T10:01:08.989Z,24.80
2018-06-04T10:03:37.182Z,24.88
2018-06-04T10:06:05.166Z,24.94
2018-06-04T10:08:32.863Z,24.98
2018-06-04T10:11:01.058Z,25.01
2018-06-04T10:13:28.895Z,25.03
2018-06-04T10:15:56.546Z,25.04
2018-06-04T10:18:24.215Z,25.06
2018-06-04T10:20:52.255Z,25.08
2018-06-04T10:23:19.945Z,25.07
2018-06-04T10:25:48.385Z,25.08
2018-06-04T10:28:16.420Z,25.08
2018-06-04T10:30:44.037Z,25.12
2018-06-04T10:33:11.663Z,25.14
2018-06-04T10:35:39.277Z,25.14
2018-06-04T10:38:06.899Z,25.16
2018-06-04T10:40:35.301Z,25.19
2018-06-04T10:43:03.169Z,25.24
2018-06-04T10:45:30.775Z,25.27
2018-06-04T10:47:58.926Z,25.28
2018-06-04T10:50:26.815Z,25.29
2018-06-04T10:52:54.429Z,25.27
2018-06-04T10:55:22.154Z,25.25
2018-06-04T10:57:51.834Z,25.24
2018-06-04T11:00:19.512Z,25.25
2018-06-04T11:02:47.164Z,25.32
2018-06-04T11:05:15.100Z,25.37
2018-06-04T11:07:43.181Z,25.40
2018-06-04T11:10:11.077Z,25.40
2018-06-04T11:12:39.014Z,25.39
2018-06-04T11:15:06.634Z,25.38
2018-06-04T11:17:34.676Z,25.36
2018-06-04T11:20:02.597Z,25.35
2018-06-04T11:22:30.634Z,25.34
2018-06-04T11:24:58.967Z,25.32
2018-06-04T11:27:26.547Z,25.30
2018-06-04T11:29:54.487Z,25.28
2018-06-04T11:32:22.160Z,25.27
2018-06-04T11:34:50.655Z,25.28
2018-06-04T11:37:18.286Z,25.26
2018-06-04T11:39:46.232Z,25.23
2018-06-04T11:42:13.872Z,25.23
2018-06-04T11:44:41.845Z,25.22
2018-06-04T11:47:09.713Z,25.21
2018-06-04T11:49:37.394Z,25.22
2018-06-04T11:52:05.073Z,25.22
2018-06-04T11:54:33.252Z,25.21
2018-06-04T11:57:01.416Z,25.20
2018-06-04T11:59:29.404Z,25.19
2018-06-04T12:01:57.375Z,25.20
2018-06-04T12:04:24.990Z,25.22
2018-06-04T12:06:52.862Z,25.21
2018-06-04T12:09:21.016Z,25.22
2018-06-04T12:11:49.226Z,25.21
2018-06-04T12:14:17.399Z,25.20
2018-06-04T12:16:45.421Z,25.18
2018-06-04T12:19:13.304Z,25.18
2018-06-04T12:21:41.425Z,25.17
2018-06-04T12:24:09.084Z,25.17
2018-06-04T12:26:37.064Z,25.16
2018-06-04T12:29:04.967Z,25.15
2018-06-04T12:31:32.612Z,25.15
2018-06-04T12:34:00.477Z,25.14
2018-06-04T12:36:28.120Z,25.14
2018-06-04T12:38:55.811Z,25.14
2018-06-04T12:41:24.148Z,25.15
2018-06-04T12:43:51.996Z,25.15
2018-06-04T12:46:19.861Z,25.15
2018-06-04T12:48:48.089Z,25.16
2018-06-04T12:51:15.889Z,25.16
2018-06-04T12:53:43.484Z,25.15
2018-06-04T12:56:11.732Z,25.13
2018-06-04T12:58:40.253Z,25.14
2018-06-04T13:01:07.939Z,25.14
2018-06-04T13:03:35.856Z,25.15
2018-06-04T13:06:03.635Z,25.14
2018-06-04T13:08:31.469Z,25.16
2018-06-04T13:10:59.317Z,25.17
2018-06-04T13:13:26.955Z,25.20
2018-06-04T13:15:54.673Z,25.20
2018-06-04T13:18:22.509Z,25.22
2018-06-04T13:20:50.649Z,25.21
2018-06-04T13:23:18.528Z,25.20
2018-06-04T13:25:46.452Z,25.18
2018-06-04T13:28:14.094Z,25.18
2018-06-04T13:30:42.336Z,25.19
2018-06-04T13:33:09.959Z,25.18
2018-06-04T13:35:37.825Z,25.19
2018-06-04T13:38:05.493Z,25.19
2018-06-04T13:40:33.118Z,25.21
2018-06-04T13:43:01.393Z,25.24
2018-06-04T13:45:29.660Z,25.25
2018-06-04T13:47:57.294Z,25.27
2018-06-04T13:50:25.535Z,25.30
2018-06-04T13:52:53.174Z,25.33
2018-06-04T13:55:21.264Z,25.36
2018-06-04T13:57:48.936Z,25.39
2018-06-04T14:00:17.007Z,25.42
2018-06-04T14:02:44.646Z,25.42
2018-06-04T14:05:12.473Z,25.42
2018-06-04T14:07:40.074Z,25.39
2018-06-04T14:10:07.701Z,25.36
2018-06-04T14:12:35.621Z,25.32
2018-06-04T14:15:03.905Z,25.30
2018-06-04T14:17:32.052Z,25.27
2018-06-04T14:19:59.937Z,25.26
2018-06-04T14:22:27.881Z,25.24
2018-06-04T14:24:55.852Z,25.24
2018-06-04T14:27:23.870Z,25.24
2018-06-04T14:29:51.539Z,25.24
2018-06-04T14:32:19.144Z,25.24
2018-06-04T14:34:47.453Z,25.25
2018-06-04T14:37:15.072Z,25.23
2018-06-04T14:39:43.177Z,25.22
2018-06-04T14:42:10.800Z,25.22
2018-06-04T14:44:38.455Z,25.21
2018-06-04T14:47:06.429Z,25.21
2018-06-04T14:49:34.549Z,25.20
2018-06-04T14:52:02.176Z,25.18
2018-06-04T14:54:30.116Z,25.17
2018-06-04T14:56:58.078Z,25.17
2018-06-04T14:59:25.704Z,25.16
2018-06-04T15:01:53.776Z,25.16
2018-06-04T15:04:21.523Z,25.16
2018-06-04T15:06:49.136Z,25.16
2018-06-04T15:09:16.734Z,25.15
2018-06-04T15:11:44.392Z,25.13
2018-06-04T15:14:12.293Z,25.11
2018-06-04T15:16:40.038Z,25.09
2018-06-04T15:19:07.930Z,25.07
2018-06-04T15:21:35.850Z,25.06
2018-06-04T15:24:04.036Z,25.07
2018-06-04T15:26:31.668Z,25.05
2018-06-04T15:28:59.310Z,25.05
2018-06-04T15:31:27.301Z,25.05
2018-06-04T15:33:55.340Z,25.03
2018-06-04T15:36:23.306Z,25.02
2018-06-04T15:38:51.565Z,25.00
2018-06-04T15:41:19.191Z,24.99
2018-06-04T15:43:47.521Z,24.98
2018-06-04T15:46:15.697Z,24.97
2018-06-04T15:48:43.588Z,24.94
2018-06-04T15:51:11.550Z,24.91
2018-06-04T15:53:39.201Z,24.91
2018-06-04T15:56:07.741Z,24.90
2018-06-04T15:58:35.965Z,24.88
2018-06-04T16:01:03.585Z,24.84
2018-06-04T16:03:31.686Z,24.82
2018-06-04T16:05:59.744Z,24.81
2018-06-04T16:08:27.633Z,24.79
2018-06-04T16:10:55.256Z,24.77
2018-06-04T16:13:23.496Z,24.75
2018-06-04T16:15:51.138Z,24.73
2018-06-04T16:18:19.201Z,24.70
2018-06-04T16:20:47.057Z,24.68
2018-06-04T16:23:15.001Z,24.64
2018-06-04T16:25:42.973Z,24.62
2018-06-04T16:28:10.575Z,24.60
2018-06-04T16:30:38.533Z,24.58
2018-06-04T16:33:06.440Z,24.56
2018-06-04T16:35:34.069Z,24.54
2018-06-04T16:38:01.719Z,24.51
2018-06-04T16:40:29.354Z,24.50
2018-06-04T16:42:57.313Z,24.47
2018-06-04T16:45:25.300Z,24.45
2018-06-04T16:47:52.932Z,24.43
2018-06-04T16:50:20.624Z,24.40
2018-06-04T16:52:48.545Z,24.40
2018-06-04T16:55:16.225Z,24.38
2018-06-04T16:57:44.468Z,24.37
2018-06-04T17:00:12.393Z,24.36
2018-06-04T17:02:40.030Z,24.34
2018-06-04T17:05:07.668Z,24.32
2018-06-04T17:07:35.290Z,24.32
2018-06-04T17:10:03.178Z,24.31
2018-06-04T17:12:31.032Z,24.30
2018-06-04T17:14:58.905Z,24.30
2018-06-04T17:17:26.590Z,24.29
2018-06-04T17:19:54.429Z,24.29
2018-06-04T17:22:22.041Z,24.28
2018-06-04T17:24:50.069Z,24.29
2018-06-04T17:27:17.966Z,24.28
2018-06-04T17:29:45.580Z,24.27
2018-06-04T17:32:13.240Z,24.26
2018-06-04T17:34:41.433Z,24.26
2018-06-04T17:37:09.071Z,24.25
2018-06-04T17:39:36.770Z,24.24
2018-06-04T17:42:04.402Z,24.20
2018-06-04T17:44:32.353Z,24.18
2018-06-04T17:47:00.036Z,24.17
2018-06-04T17:49:27.969Z,24.14
2018-06-04T17:51:56.222Z,24.12
2018-06-04T17:54:24.096Z,24.11
2018-06-04T17:56:51.718Z,24.09
2018-06-04T17:59:19.362Z,24.08
2018-06-04T18:01:47.230Z,24.07
2018-06-04T18:04:14.886Z,24.04
2018-06-04T18:06:42.862Z,24.04
2018-06-04T18:09:10.568Z,24.01
2018-06-04T18:11:38.492Z,24.01
2018-06-04T18:14:06.183Z,24.00
2018-06-04T18:16:34.120Z,23.99
2018-06-04T18:19:02.413Z,23.99
2018-06-04T18:21:30.308Z,23.97
2018-06-04T18:23:57.973Z,23.96
2018-06-04T18:26:25.763Z,23.94
2018-06-04T18:28:53.376Z,23.93
2018-06-04T18:31:21.506Z,23.91
2018-06-04T18:33:49.148Z,23.90
2018-06-04T18:36:16.889Z,23.89
2018-06-04T18:38:45.113Z,23.88
2018-06-04T18:41:13.081Z,23.86
2018-06-04T18:43:40.704Z,23.85
2018-06-04T18:46:08.332Z,23.85
2018-06-04T18:48:35.952Z,23.84
2018-06-04T18:51:04.253Z,23.83
2018-06-04T18:53:32.230Z,23.86
2018-06-04T18:56:00.383Z,23.93
2018-06-04T18:58:28.236Z,23.96
2018-06-04T19:00:55.914Z,23.95
2018-06-04T19:03:23.636Z,23.94
2018-06-04T19:05:51.247Z,23.92
2018-06-04T19:08:18.888Z,23.91
2018-06-04T19:10:46.646Z,23.90
2018-06-04T19:13:14.246Z,23.92
2018-06-04T19:15:42.488Z,23.93
2018-06-04T19:18:11.094Z,23.93
2018-06-04T19:20:39.352Z,23.94
2018-06-04T19:23:07.238Z,23.94
2018-06-04T19:25:34.909Z,23.95
2018-06-04T19:28:03.533Z,23.95
2018-06-04T19:30:31.152Z,23.96
2018-06-04T19:32:58.983Z,23.96
2018-06-04T19:35:27.344Z,23.97
2018-06-04T19:37:54.969Z,23.98
2018-06-04T19:40:22.618Z,24.01
2018-06-04T19:42:50.242Z,24.03
2018-06-04T19:45:17.864Z,24.04
2018-06-04T19:47:45.640Z,24.03
2018-06-04T19:50:13.298Z,24.04
2018-06-04T19:52:41.401Z,24.05
2018-06-04T19:55:09.691Z,24.04
2018-06-04T19:57:37.352Z,24.03
2018-06-04T20:00:05.073Z,24.05
2018-06-04T20:02:34.855Z,24.06
2018-06-04T20:05:02.537Z,24.06
2018-06-04T20:07:30.201Z,24.04
2018-06-04T20:09:58.429Z,24.04
2018-06-04T20:12:26.277Z,24.05
2018-06-04T20:14:54.258Z,24.03
2018-06-04T20:17:22.006Z,24.02
2018-06-04T20:19:50.218Z,24.03
2018-06-04T20:22:18.300Z,24.03
2018-06-04T20:24:46.111Z,24.04
2018-06-04T20:27:13.869Z,24.06
2018-06-04T20:29:41.494Z,24.06
2018-06-04T20:32:09.501Z,24.06
2018-06-04T20:34:37.106Z,24.06
2018-06-04T20:37:04.741Z,24.06
2018-06-04T20:39:32.851Z,24.04
2018-06-04T20:42:00.762Z,24.03
2018-06-04T20:44:28.429Z,24.00
2018-06-04T20:46:56.417Z,23.97
2018-06-04T20:49:24.132Z,23.96
2018-06-04T20:51:51.791Z,23.94
2018-06-04T20:54:19.762Z,23.94
2018-06-04T20:56:47.722Z,23.91
2018-06-04T20:59:15.586Z,23.89
2018-06-04T21:01:43.238Z,23.87
2018-06-04T21:04:11.385Z,23.87
2018-06-04T21:06:39.043Z,23.86
2018-06-04T21:09:07.485Z,23.85
2018-06-04T21:11:35.806Z,23.83
2018-06-04T21:14:03.862Z,23.83
2018-06-04T21:16:31.497Z,23.81
2018-06-04T21:18:59.177Z,23.81
2018-06-04T21:21:26.820Z,23.80
2018-06-04T21:23:54.677Z,23.80
2018-06-04T21:26:23.165Z,23.77
2018-06-04T21:28:51.004Z,23.78
2018-06-04T21:31:18.758Z,23.77
2018-06-04T21:33:46.358Z,23.77
2018-06-04T21:36:13.964Z,23.76
2018-06-04T21:38:41.709Z,23.75
2018-06-04T21:41:09.794Z,23.74
2018-06-04T21:43:37.443Z,23.72
2018-06-04T21:46:05.061Z,23.72
2018-06-04T21:48:33.735Z,23.71
2018-06-04T21:51:01.344Z,23.70
2018-06-04T21:53:28.951Z,23.70
2018-06-04T21:55:56.846Z,23.70
2018-06-04T21:58:24.902Z,23.71
2018-06-04T22:00:52.603Z,23.72
2018-06-04T22:03:20.485Z,23.71
2018-06-04T22:05:48.556Z,23.69
2018-06-04T22:08:16.205Z,23.69
2018-06-04T22:10:43.862Z,23.66
2018-06-04T22:13:11.469Z,23.66
2018-06-04T22:15:39.127Z,23.45
2018-06-04T22:18:06.739Z,23.63
2018-06-04T22:20:34.416Z,23.62
2018-06-04T22:23:02.600Z,23.61
2018-06-04T22:25:30.218Z,23.59
2018-06-04T22:27:58.205Z,23.58
2018-06-04T22:30:26.065Z,23.56
2018-06-04T22:32:53.965Z,23.57
2018-06-04T22:35:21.608Z,23.54
2018-06-04T22:37:49.513Z,23.55
2018-06-04T22:40:17.461Z,23.53
2018-06-04T22:42:45.107Z,23.52
2018-06-04T22:45:12.792Z,23.51
2018-06-04T22:47:40.568Z,23.51
2018-06-04T22:50:08.457Z,23.50
2018-06-04T22:52:36.074Z,23.49
2018-06-04T22:55:03.723Z,23.49
2018-06-04T22:57:31.614Z,23.48
2018-06-04T22:59:59.288Z,23.45
2018-06-04T23:02:27.172Z,23.43
2018-06-04T23:04:54.804Z,23.41
2018-06-04T23:07:22.482Z,23.41
2018-06-04T23:09:50.316Z,23.39
2018-06-04T23:14:44.909Z,23.38
2018-06-04T23:17:12.534Z,23.38
2018-06-04T23:19:40.428Z,23.38
2018-06-04T23:22:08.059Z,23.37
2018-06-04T23:24:35.700Z,23.36
2018-06-04T23:27:03.329Z,23.35
2018-06-04T23:29:31.203Z,23.36
2018-06-04T23:31:58.825Z,23.35
2018-06-04T23:34:26.757Z,23.35
2018-06-04T23:36:54.705Z,23.33
2018-06-04T23:39:22.720Z,23.31
2018-06-04T23:41:50.344Z,23.30
2018-06-04T23:44:18.253Z,23.29
2018-06-04T23:46:45.921Z,23.28
2018-06-04T23:49:13.901Z,23.26
2018-06-04T23:51:42.038Z,23.26
2018-06-04T23:54:09.653Z,23.24
2018-06-04T23:56:37.274Z,23.23
2018-06-04T23:59:05.226Z,23.22
